Ocean Sapphire — VRKL8 — position and weather

sailwx.info

Track history (hours):
 
Tides and Currents Weather Stations Pressure Air Temp Water Temp Dewpoint Dewpoint Depression Visibility Wind Speed Wind Dir Waves Ship Positions

Ocean Sapphire

Last reported at 2015-Mar-30 00:04 UTC. Time now 2015-Apr-01 05:57 UTC.
Position N 01°15' E 104°11'.

Length 229 m; draft 8.4 m.

Type: Cargo ship. MMSI: 477065400.

Date/timePositionNaut miles runAvg speedWind from/ knotsBaromVisibWave heightAir tempDewpointWater temp
2015-Mar-30 00:04N 01°15' E 104°11'611.6
2015-Mar-29 23:33N 01°15' E 104°05'7 7.5
2015-Mar-29 22:33N 01°16' E 103°57'0 0.1
2015-Mar-29 21:22N 01°16' E 103°57'0 0.0
2015-Mar-29 20:28N 01°16' E 103°57'0 0.0
2015-Mar-29 19:25N 01°16' E 103°57'0 0.0
2015-Mar-29 18:28N 01°16' E 103°57'0 0.0
2015-Mar-29 17:10N 01°16' E 103°57'0 0.0
2015-Mar-29 16:25N 01°16' E 103°57'0 0.0
2015-Mar-29 15:31N 01°16' E 103°57'0 0.0
2015-Mar-29 14:16N 01°16' E 103°57'0 0.0
2015-Mar-29 13:28N 01°16' E 103°57'0 0.0
2015-Mar-29 12:16N 01°16' E 103°57'0 0.0
2015-Mar-29 11:22N 01°16' E 103°57'0 0.0
2015-Mar-29 10:19N 01°16' E 103°57'0 0.0
2015-Mar-29 09:16N 01°16' E 103°57'0 0.2
2015-Mar-29 08:28N 01°17' E 103°57'0 0.1
2015-Mar-29 06:22N 01°16' E 103°57'0 0.1
2015-Mar-29 05:22N 01°17' E 103°57'0 0.1
2015-Mar-29 03:22N 01°16' E 103°57'0 0.0
2015-Mar-29 02:31N 01°16' E 103°57'0 0.1
2015-Mar-29 01:31N 01°16' E 103°57'0 0.1
2015-Mar-29 00:29N 01°16' E 103°57'3 2.9
2015-Mar-28 23:32N 01°14' E 103°56'9 8.4
2015-Mar-28 22:32N 01°10' E 103°49'74 9.0
2015-Mar-28 14:13N 01°41' E 102°41'811.4
2015-Mar-28 13:33N 01°45' E 102°34'1711.9
2015-Mar-28 12:09N 01°52' E 102°19'1912.1
2015-Mar-28 10:33N 02°03' E 102°04'  
Track history (hours):
 
Tides and Currents Weather Stations Pressure Air Temp Water Temp Dewpoint Dewpoint Depression Visibility Wind Speed Wind Dir Waves Ship Positions

Ocean Sapphire

Last reported at 2015-Mar-30 00:04 UTC. Time now 2015-Apr-01 05:57 UTC.
Position N 01°15' E 104°11'.

Length 229 m; draft 8.4 m.

Type: Cargo ship. MMSI: 477065400.

Date/timePositionNaut miles runAvg speedWind from/ knotsBaromVisibWave heightAir tempDewpointWater temp
2015-Mar-30 00:04N 01°15' E 104°11'611.6
2015-Mar-29 23:33N 01°15' E 104°05'7 7.5
2015-Mar-29 22:33N 01°16' E 103°57'0 0.1
2015-Mar-29 21:22N 01°16' E 103°57'0 0.0
2015-Mar-29 20:28N 01°16' E 103°57'0 0.0
2015-Mar-29 19:25N 01°16' E 103°57'0 0.0
2015-Mar-29 18:28N 01°16' E 103°57'0 0.0
2015-Mar-29 17:10N 01°16' E 103°57'0 0.0
2015-Mar-29 16:25N 01°16' E 103°57'0 0.0
2015-Mar-29 15:31N 01°16' E 103°57'0 0.0
2015-Mar-29 14:16N 01°16' E 103°57'0 0.0
2015-Mar-29 13:28N 01°16' E 103°57'0 0.0
2015-Mar-29 12:16N 01°16' E 103°57'0 0.0
2015-Mar-29 11:22N 01°16' E 103°57'0 0.0
2015-Mar-29 10:19N 01°16' E 103°57'0 0.0
2015-Mar-29 09:16N 01°16' E 103°57'0 0.2
2015-Mar-29 08:28N 01°17' E 103°57'0 0.1
2015-Mar-29 06:22N 01°16' E 103°57'0 0.1
2015-Mar-29 05:22N 01°17' E 103°57'0 0.1
2015-Mar-29 03:22N 01°16' E 103°57'0 0.0
2015-Mar-29 02:31N 01°16' E 103°57'0 0.1
2015-Mar-29 01:31N 01°16' E 103°57'0 0.1
2015-Mar-29 00:29N 01°16' E 103°57'3 2.9
2015-Mar-28 23:32N 01°14' E 103°56'9 8.4
2015-Mar-28 22:32N 01°10' E 103°49'74 9.0
2015-Mar-28 14:13N 01°41' E 102°41'811.4
2015-Mar-28 13:33N 01°45' E 102°34'1711.9
2015-Mar-28 12:09N 01°52' E 102°19'1912.1
2015-Mar-28 10:33N 02°03' E 102°04'  

Dump ship's entire track history